createdAt,value
2023-01-19T00:00:56.475Z,988.79
2023-01-19T00:01:56.495Z,988.78
2023-01-19T00:02:56.478Z,988.76
2023-01-19T00:03:56.447Z,988.8
2023-01-19T00:04:56.453Z,988.82
2023-01-19T00:05:56.433Z,988.87
2023-01-19T00:06:56.420Z,988.77
2023-01-19T00:07:56.412Z,988.84
2023-01-19T00:08:56.408Z,988.79
2023-01-19T00:09:56.397Z,988.92
2023-01-19T00:10:56.375Z,988.9
2023-01-19T00:11:56.361Z,988.87
2023-01-19T00:12:56.353Z,988.9
2023-01-19T00:13:56.353Z,988.82
2023-01-19T00:14:56.332Z,988.84
2023-01-19T00:15:56.325Z,988.79
2023-01-19T00:16:56.312Z,988.87
2023-01-19T00:17:56.297Z,988.85
2023-01-19T00:18:56.289Z,988.83
2023-01-19T00:19:56.289Z,988.83
2023-01-19T00:20:56.296Z,988.82
2023-01-19T00:21:56.265Z,988.78
2023-01-19T00:22:56.249Z,988.78
2023-01-19T00:23:56.240Z,988.84
2023-01-19T00:24:56.232Z,988.93
2023-01-19T00:25:56.229Z,988.86
2023-01-19T00:26:56.207Z,988.83
2023-01-19T00:27:56.199Z,988.8
2023-01-19T00:28:56.189Z,988.85
2023-01-19T00:29:56.170Z,988.9
2023-01-19T00:30:56.169Z,988.86
2023-01-19T00:31:56.151Z,988.82
2023-01-19T00:32:56.140Z,988.83
2023-01-19T00:33:56.148Z,988.8
2023-01-19T00:34:56.122Z,988.9
2023-01-19T00:35:56.109Z,988.82
2023-01-19T00:36:56.105Z,988.81
2023-01-19T00:37:56.091Z,988.87
2023-01-19T00:38:56.077Z,988.82
2023-01-19T00:39:56.068Z,988.78
2023-01-19T00:40:56.069Z,988.73
2023-01-19T00:41:56.046Z,988.69
2023-01-19T00:42:56.043Z,988.69
2023-01-19T00:43:56.059Z,988.72
2023-01-19T00:44:56.014Z,988.72
2023-01-19T00:45:56.007Z,988.88
2023-01-19T00:46:56.003Z,988.81
2023-01-19T00:47:55.990Z,988.7
2023-01-19T00:48:55.977Z,988.7
2023-01-19T00:49:55.981Z,988.79
2023-01-19T00:50:55.956Z,988.69
2023-01-19T00:51:55.968Z,988.78
2023-01-19T00:52:55.940Z,988.73
2023-01-19T00:53:55.927Z,988.84
2023-01-19T00:54:55.925Z,988.75
2023-01-19T00:55:55.962Z,988.69
2023-01-19T00:56:55.893Z,988.72
2023-01-19T00:57:55.879Z,988.81
2023-01-19T00:58:55.877Z,988.83
2023-01-19T00:59:55.896Z,988.88
2023-01-19T01:00:55.859Z,988.84
2023-01-19T01:01:55.843Z,988.79
2023-01-19T01:02:55.833Z,988.83
2023-01-19T01:03:55.815Z,988.87
2023-01-19T01:04:55.854Z,988.85
2023-01-19T01:05:55.802Z,988.98
2023-01-19T01:06:55.794Z,988.94
2023-01-19T01:07:55.782Z,988.9
2023-01-19T01:08:55.784Z,988.89
2023-01-19T01:09:55.752Z,988.88
2023-01-19T01:10:55.751Z,988.88
2023-01-19T01:11:55.742Z,988.93
2023-01-19T01:12:55.724Z,988.96
2023-01-19T01:13:55.712Z,989
2023-01-19T01:14:55.704Z,988.89
2023-01-19T01:15:55.694Z,989.04
2023-01-19T01:16:55.688Z,988.95
2023-01-19T01:17:55.671Z,988.99
2023-01-19T01:18:55.658Z,989.03
2023-01-19T01:19:55.657Z,989.08
2023-01-19T01:20:55.643Z,988.99
2023-01-19T01:21:55.628Z,989.02
2023-01-19T01:22:55.619Z,989.01
2023-01-19T01:23:55.623Z,988.96
2023-01-19T01:24:55.601Z,989.05
2023-01-19T01:25:55.590Z,989.03
2023-01-19T01:26:55.580Z,989.05
2023-01-19T01:27:55.564Z,989.04
2023-01-19T01:28:55.555Z,989.04
2023-01-19T01:29:55.559Z,989.01
2023-01-19T01:30:55.535Z,988.99
2023-01-19T01:31:55.530Z,988.95
2023-01-19T01:32:55.514Z,988.98
2023-01-19T01:33:55.504Z,988.97
2023-01-19T01:34:55.500Z,988.99
2023-01-19T01:35:55.481Z,988.89
2023-01-19T01:36:55.481Z,988.84
2023-01-19T01:37:55.466Z,988.81
2023-01-19T01:38:55.450Z,988.82
2023-01-19T01:39:55.438Z,988.78
2023-01-19T01:40:55.438Z,988.9
2023-01-19T01:41:55.419Z,988.92
2023-01-19T01:42:55.407Z,988.78
2023-01-19T01:43:55.399Z,988.87
2023-01-19T01:44:55.603Z,988.87
2023-01-19T01:45:55.374Z,988.92
2023-01-19T01:46:55.373Z,988.91
2023-01-19T01:47:55.354Z,988.97
2023-01-19T01:48:55.348Z,989.04
2023-01-19T01:49:55.337Z,988.97
2023-01-19T01:50:55.328Z,988.97
2023-01-19T01:51:55.314Z,988.95
2023-01-19T01:52:55.320Z,988.99
2023-01-19T01:53:55.294Z,988.88
2023-01-19T01:54:55.283Z,988.96
2023-01-19T01:55:55.275Z,988.97
2023-01-19T01:56:55.274Z,988.97
2023-01-19T01:57:55.259Z,988.96
2023-01-19T01:58:55.247Z,989.03
2023-01-19T01:59:55.231Z,988.98
2023-01-19T02:00:55.223Z,988.93
2023-01-19T02:01:55.211Z,989.05
2023-01-19T02:02:55.198Z,989.12
2023-01-19T02:03:55.190Z,989.08
2023-01-19T02:04:55.196Z,989.11
2023-01-19T02:05:55.172Z,989.01
2023-01-19T02:06:55.167Z,989.07
2023-01-19T02:07:55.148Z,989.08
2023-01-19T02:08:55.137Z,989.08
2023-01-19T02:09:55.130Z,989.1
2023-01-19T02:10:55.126Z,989.11
2023-01-19T02:11:55.110Z,989.02
2023-01-19T02:12:55.110Z,989.13
2023-01-19T02:13:55.087Z,989.03
2023-01-19T02:14:55.072Z,989.1
2023-01-19T02:15:55.073Z,989.13
2023-01-19T02:16:55.053Z,989.09
2023-01-19T02:17:55.049Z,989.04
2023-01-19T02:18:55.034Z,988.99
2023-01-19T02:19:55.021Z,989.03
2023-01-19T02:20:55.010Z,989.04
2023-01-19T02:21:55.010Z,988.98
2023-01-19T02:22:54.994Z,988.96
2023-01-19T02:23:54.989Z,988.91
2023-01-19T02:24:54.974Z,988.83
2023-01-19T02:25:54.957Z,988.84
2023-01-19T02:26:54.964Z,988.84
2023-01-19T02:27:54.948Z,988.82
2023-01-19T02:28:54.926Z,988.84
2023-01-19T02:29:54.914Z,988.83
2023-01-19T02:30:54.903Z,988.84
2023-01-19T02:31:54.893Z,988.88
2023-01-19T02:32:54.892Z,988.83
2023-01-19T02:33:54.882Z,988.85
2023-01-19T02:34:54.863Z,988.84
2023-01-19T02:35:54.856Z,988.87
2023-01-19T02:36:54.847Z,988.92
2023-01-19T02:37:54.860Z,988.9
2023-01-19T02:38:54.824Z,988.91
2023-01-19T02:39:54.834Z,988.85
2023-01-19T02:40:54.836Z,988.89
2023-01-19T02:41:54.805Z,988.89
2023-01-19T02:42:54.784Z,988.93
2023-01-19T02:43:54.770Z,989
2023-01-19T02:44:54.775Z,988.91
2023-01-19T02:45:54.832Z,988.86
2023-01-19T02:46:54.735Z,989.01
2023-01-19T02:47:54.726Z,988.9
2023-01-19T02:48:54.794Z,988.86
2023-01-19T02:49:54.703Z,988.91
2023-01-19T02:50:54.711Z,988.88
2023-01-19T02:51:54.689Z,988.92
2023-01-19T02:52:54.678Z,988.87
2023-01-19T02:53:54.665Z,988.84
2023-01-19T02:54:54.662Z,988.88
2023-01-19T02:55:54.646Z,988.89
2023-01-19T02:56:54.640Z,988.88
2023-01-19T02:57:54.623Z,988.85
2023-01-19T02:58:54.607Z,988.85
2023-01-19T02:59:54.598Z,988.86
2023-01-19T03:01:01.426Z,988.84
2023-01-19T03:01:54.583Z,988.92
2023-01-19T03:02:54.591Z,988.87
2023-01-19T03:03:54.560Z,988.92
2023-01-19T03:04:54.544Z,988.89
2023-01-19T03:05:54.535Z,988.89
2023-01-19T03:06:54.537Z,988.85
2023-01-19T03:07:54.531Z,988.88
2023-01-19T03:08:54.509Z,988.78
2023-01-19T03:09:54.498Z,988.88
2023-01-19T03:10:54.491Z,988.92
2023-01-19T03:11:54.477Z,988.89
2023-01-19T03:12:54.469Z,988.9
2023-01-19T03:13:54.467Z,988.89
2023-01-19T03:14:54.454Z,988.81
2023-01-19T03:15:54.430Z,988.84
2023-01-19T03:16:54.424Z,988.78
2023-01-19T03:17:54.418Z,988.81
2023-01-19T03:18:54.407Z,988.87
2023-01-19T03:19:54.404Z,988.81
2023-01-19T03:20:54.376Z,988.79
2023-01-19T03:21:54.371Z,988.8
2023-01-19T03:22:54.362Z,988.8
2023-01-19T03:23:54.347Z,988.81
2023-01-19T03:24:54.343Z,988.75
2023-01-19T03:25:54.340Z,988.71
2023-01-19T03:26:54.314Z,988.69
2023-01-19T03:27:54.302Z,988.73
2023-01-19T03:28:54.313Z,988.74
2023-01-19T03:29:54.285Z,988.7
2023-01-19T03:30:54.273Z,988.68
2023-01-19T03:31:54.262Z,988.69
2023-01-19T03:32:54.252Z,988.75
2023-01-19T03:33:54.240Z,988.75
2023-01-19T03:34:54.228Z,988.74
2023-01-19T03:35:54.220Z,988.74
2023-01-19T03:36:54.218Z,988.75
2023-01-19T03:37:54.221Z,988.76
2023-01-19T03:38:54.187Z,988.83
2023-01-19T03:39:54.183Z,988.83
2023-01-19T03:40:54.169Z,988.72
2023-01-19T03:41:54.162Z,988.76
2023-01-19T03:42:54.158Z,988.71
2023-01-19T03:43:54.136Z,988.75
2023-01-19T03:44:54.128Z,988.78
2023-01-19T03:45:54.118Z,988.77
2023-01-19T03:46:54.113Z,988.77
2023-01-19T03:47:54.099Z,988.83
2023-01-19T03:48:54.084Z,988.77
2023-01-19T03:49:54.069Z,988.83
2023-01-19T03:50:54.062Z,988.82
2023-01-19T03:51:54.050Z,988.8
2023-01-19T03:52:54.047Z,988.82
2023-01-19T03:53:54.042Z,988.78
2023-01-19T03:54:54.058Z,988.83
2023-01-19T03:55:54.014Z,988.77
2023-01-19T03:56:53.998Z,988.73
2023-01-19T03:57:53.987Z,988.81
2023-01-19T03:58:53.982Z,988.8
2023-01-19T03:59:53.978Z,988.81
2023-01-19T04:00:53.962Z,988.77
2023-01-19T04:01:53.943Z,988.77
2023-01-19T04:02:53.944Z,988.77
2023-01-19T04:03:53.923Z,988.79
2023-01-19T04:04:53.910Z,988.81
2023-01-19T04:05:53.912Z,988.81
2023-01-19T04:06:53.891Z,988.81
2023-01-19T04:07:53.881Z,988.76
2023-01-19T04:08:53.879Z,988.79
2023-01-19T04:09:53.867Z,988.79
2023-01-19T04:10:53.846Z,988.8
2023-01-19T04:11:53.848Z,988.78
2023-01-19T04:12:53.851Z,988.83
2023-01-19T04:13:53.816Z,988.75
2023-01-19T04:14:53.820Z,988.79
2023-01-19T04:15:53.798Z,988.76
2023-01-19T04:16:53.792Z,988.7
2023-01-19T04:17:53.807Z,988.77
2023-01-19T04:18:53.765Z,988.84
2023-01-19T04:19:53.761Z,988.71
2023-01-19T04:20:53.750Z,988.71
2023-01-19T04:21:53.732Z,988.8
2023-01-19T04:22:53.724Z,988.78
2023-01-19T04:23:53.710Z,988.7
2023-01-19T04:24:53.703Z,988.77
2023-01-19T04:25:53.692Z,988.72
2023-01-19T04:26:53.681Z,988.86
2023-01-19T04:27:53.673Z,988.75
2023-01-19T04:28:53.661Z,988.67
2023-01-19T04:29:53.659Z,988.73
2023-01-19T04:30:53.639Z,988.69
2023-01-19T04:31:53.633Z,988.69
2023-01-19T04:32:53.620Z,988.63
2023-01-19T04:33:53.603Z,988.55
2023-01-19T04:34:53.607Z,988.63
2023-01-19T04:35:53.586Z,988.53
2023-01-19T04:36:53.617Z,988.54
2023-01-19T04:37:53.569Z,988.59
2023-01-19T04:38:53.558Z,988.59
2023-01-19T04:39:53.542Z,988.61
2023-01-19T04:40:53.545Z,988.57
2023-01-19T04:41:53.533Z,988.56
2023-01-19T04:42:53.512Z,988.58
2023-01-19T04:43:53.509Z,988.59
2023-01-19T04:44:53.486Z,988.58
2023-01-19T04:45:53.491Z,988.63
2023-01-19T04:46:53.477Z,988.56
2023-01-19T04:47:53.459Z,988.61
2023-01-19T04:48:53.446Z,988.56
2023-01-19T04:49:53.438Z,988.56
2023-01-19T04:50:53.559Z,988.61
2023-01-19T04:51:53.416Z,988.57
2023-01-19T04:52:53.412Z,988.58
2023-01-19T04:53:53.429Z,988.59
2023-01-19T04:54:53.382Z,988.63
2023-01-19T04:55:53.370Z,988.62
2023-01-19T04:56:53.367Z,988.61
2023-01-19T04:57:53.354Z,988.64
2023-01-19T04:58:53.337Z,988.6
2023-01-19T04:59:53.335Z,988.63
2023-01-19T05:00:53.329Z,988.66
2023-01-19T05:01:53.306Z,988.54
2023-01-19T05:02:53.302Z,988.68
2023-01-19T05:03:53.302Z,988.58
2023-01-19T05:04:53.278Z,988.59
2023-01-19T05:05:53.264Z,988.55
2023-01-19T05:06:53.279Z,988.58
2023-01-19T05:07:53.244Z,988.63
2023-01-19T05:08:53.233Z,988.64
2023-01-19T05:09:53.236Z,988.65
2023-01-19T05:10:53.234Z,988.64
2023-01-19T05:11:53.201Z,988.61
2023-01-19T05:13:00.845Z,988.58
2023-01-19T05:13:53.201Z,988.61
2023-01-19T05:14:53.219Z,988.66
2023-01-19T05:15:53.198Z,988.65
2023-01-19T05:16:53.161Z,988.65
2023-01-19T05:17:53.185Z,988.62
2023-01-19T05:18:53.146Z,988.66
2023-01-19T05:19:53.122Z,988.68
2023-01-19T05:20:53.124Z,988.61
2023-01-19T05:21:53.129Z,988.75
2023-01-19T05:22:53.112Z,988.67
2023-01-19T05:23:53.084Z,988.6
2023-01-19T05:24:53.078Z,988.63
2023-01-19T05:25:53.056Z,988.66
2023-01-19T05:26:53.067Z,988.67
2023-01-19T05:27:53.036Z,988.71
2023-01-19T05:28:53.031Z,988.67
2023-01-19T05:29:53.019Z,988.65
2023-01-19T05:30:53.014Z,988.59
2023-01-19T05:31:53.017Z,988.59
2023-01-19T05:32:53.005Z,988.65
2023-01-19T05:33:53.011Z,988.58
2023-01-19T05:34:53.016Z,988.63
2023-01-19T05:35:52.959Z,988.6
2023-01-19T05:36:52.940Z,988.61
2023-01-19T05:37:52.939Z,988.59
2023-01-19T05:38:52.917Z,988.58
2023-01-19T05:39:52.909Z,988.54
2023-01-19T05:40:52.900Z,988.61
2023-01-19T05:42:00.460Z,988.62
2023-01-19T05:42:52.906Z,988.56
2023-01-19T05:43:52.882Z,988.61
2023-01-19T05:44:52.878Z,988.59
2023-01-19T05:45:52.878Z,988.54
2023-01-19T05:46:52.857Z,988.6
2023-01-19T05:47:52.859Z,988.61
2023-01-19T05:48:52.827Z,988.51
2023-01-19T05:49:52.806Z,988.53
2023-01-19T05:50:52.831Z,988.57
2023-01-19T05:51:52.799Z,988.52
2023-01-19T05:52:52.769Z,988.52
2023-01-19T05:53:52.758Z,988.53
2023-01-19T05:54:52.772Z,988.57
2023-01-19T05:55:52.753Z,988.6
2023-01-19T05:56:52.727Z,988.6
2023-01-19T05:57:52.732Z,988.56
2023-01-19T05:58:52.710Z,988.57
2023-01-19T05:59:52.707Z,988.53
2023-01-19T06:00:52.686Z,988.57
2023-01-19T06:01:52.682Z,988.54
2023-01-19T06:02:52.669Z,988.58
2023-01-19T06:03:52.653Z,988.57
2023-01-19T06:04:52.643Z,988.53
2023-01-19T06:05:52.634Z,988.51
2023-01-19T06:06:52.619Z,988.55
2023-01-19T06:07:52.612Z,988.53
2023-01-19T06:08:52.618Z,988.51
2023-01-19T06:09:52.588Z,988.47
2023-01-19T06:10:52.580Z,988.51
2023-01-19T06:11:52.566Z,988.51
2023-01-19T06:12:52.560Z,988.51
2023-01-19T06:13:52.551Z,988.53
2023-01-19T06:14:52.540Z,988.5
2023-01-19T06:15:52.529Z,988.55
2023-01-19T06:16:52.554Z,988.56
2023-01-19T06:17:52.510Z,988.54
2023-01-19T06:18:52.502Z,988.59
2023-01-19T06:19:52.490Z,988.55
2023-01-19T06:20:52.472Z,988.6
2023-01-19T06:21:52.469Z,988.54
2023-01-19T06:22:52.487Z,988.56
2023-01-19T06:23:52.442Z,988.59
2023-01-19T06:24:52.453Z,988.59
2023-01-19T06:25:52.423Z,988.52
2023-01-19T06:26:52.412Z,988.52
2023-01-19T06:27:52.420Z,988.62
2023-01-19T06:28:52.393Z,988.62
2023-01-19T06:29:52.390Z,988.66
2023-01-19T06:30:52.368Z,988.56
2023-01-19T06:31:52.373Z,988.62
2023-01-19T06:32:52.351Z,988.65
2023-01-19T06:33:52.368Z,988.72
2023-01-19T06:34:52.370Z,988.93
2023-01-19T06:35:52.316Z,988.71
2023-01-19T06:36:52.306Z,988.72
2023-01-19T06:37:52.305Z,988.67
2023-01-19T06:38:52.284Z,988.71
2023-01-19T06:39:52.280Z,988.71
2023-01-19T06:40:52.258Z,988.67
2023-01-19T06:41:52.255Z,988.75
2023-01-19T06:42:52.242Z,988.7
2023-01-19T06:43:52.230Z,988.69
2023-01-19T06:44:52.242Z,988.74
2023-01-19T06:45:52.220Z,988.69
2023-01-19T06:46:52.203Z,988.72
2023-01-19T06:47:52.196Z,988.76
2023-01-19T06:48:52.175Z,988.69
2023-01-19T06:49:52.170Z,988.78
2023-01-19T06:50:52.155Z,988.72
2023-01-19T06:51:52.174Z,988.8
2023-01-19T06:52:52.134Z,988.69
2023-01-19T06:53:52.127Z,988.75
2023-01-19T06:54:52.113Z,988.75
2023-01-19T06:55:52.101Z,988.78
2023-01-19T06:56:52.093Z,988.79
2023-01-19T06:57:52.082Z,988.87
2023-01-19T06:58:52.076Z,988.86
2023-01-19T06:59:52.078Z,988.88
2023-01-19T07:00:52.053Z,988.84
2023-01-19T07:01:52.040Z,989.02
2023-01-19T07:02:52.037Z,988.89
2023-01-19T07:03:52.019Z,988.96
2023-01-19T07:04:52.009Z,988.97
2023-01-19T07:05:52.000Z,989.01
2023-01-19T07:06:51.987Z,989.04
2023-01-19T07:07:51.983Z,988.97
2023-01-19T07:08:51.964Z,989.06
2023-01-19T07:09:51.956Z,989.06
2023-01-19T07:10:51.945Z,989.08
2023-01-19T07:11:51.935Z,989.01
2023-01-19T07:12:51.934Z,989.07
2023-01-19T07:13:51.910Z,989.07
2023-01-19T07:14:51.902Z,989.04
2023-01-19T07:15:51.893Z,989.06
2023-01-19T07:16:51.899Z,989.01
2023-01-19T07:17:51.876Z,989
2023-01-19T07:18:51.898Z,989.01
2023-01-19T07:19:51.850Z,989
2023-01-19T07:20:51.838Z,989.04
2023-01-19T07:21:51.834Z,989.09
2023-01-19T07:22:51.816Z,989.11
2023-01-19T07:23:51.809Z,989.1
2023-01-19T07:24:51.811Z,989.09
2023-01-19T07:25:51.785Z,989.02
2023-01-19T07:26:51.774Z,989.08
2023-01-19T07:27:51.763Z,989.06
2023-01-19T07:28:51.753Z,989.09
2023-01-19T07:29:51.749Z,989.1
2023-01-19T07:30:51.737Z,989.06
2023-01-19T07:31:51.724Z,989.1
2023-01-19T07:32:51.709Z,989.17
2023-01-19T07:33:51.703Z,989.2
2023-01-19T07:34:51.690Z,989.22
2023-01-19T07:35:51.677Z,989.2
2023-01-19T07:36:51.675Z,989.29
2023-01-19T07:37:51.679Z,989.25
2023-01-19T07:38:51.650Z,989.31
2023-01-19T07:39:51.639Z,989.27
2023-01-19T07:40:51.631Z,989.27
2023-01-19T07:41:51.619Z,989.27
2023-01-19T07:42:51.610Z,989.32
2023-01-19T07:43:51.608Z,989.29
2023-01-19T07:44:51.589Z,989.4
2023-01-19T07:45:51.581Z,989.31
2023-01-19T07:46:51.561Z,989.34
2023-01-19T07:47:51.561Z,989.38
2023-01-19T07:48:51.547Z,989.42
2023-01-19T07:49:51.535Z,989.35
2023-01-19T07:50:51.522Z,989.35
2023-01-19T07:51:51.514Z,989.37
2023-01-19T07:52:51.510Z,989.35
2023-01-19T07:53:51.488Z,989.4
2023-01-19T07:54:51.481Z,989.39
2023-01-19T07:55:51.483Z,989.43
2023-01-19T07:56:51.456Z,989.37
2023-01-19T07:57:51.446Z,989.49
2023-01-19T07:58:51.497Z,989.47
2023-01-19T07:59:51.429Z,989.47
2023-01-19T08:00:51.416Z,989.48
2023-01-19T08:01:51.412Z,989.54
2023-01-19T08:02:51.415Z,989.56
2023-01-19T08:03:51.394Z,989.53
2023-01-19T08:04:51.372Z,989.57
2023-01-19T08:05:51.360Z,989.55
2023-01-19T08:06:51.360Z,989.59
2023-01-19T08:07:51.344Z,989.59
2023-01-19T08:08:51.337Z,989.63
2023-01-19T08:09:51.337Z,989.59
2023-01-19T08:10:51.311Z,989.63
2023-01-19T08:11:51.297Z,989.64
2023-01-19T08:12:51.289Z,989.62
2023-01-19T08:13:51.281Z,989.64
2023-01-19T08:14:51.270Z,989.67
2023-01-19T08:15:51.275Z,989.74
2023-01-19T08:16:51.254Z,989.69
2023-01-19T08:17:51.239Z,989.71
2023-01-19T08:18:51.226Z,989.72
2023-01-19T08:19:51.217Z,989.71
2023-01-19T08:20:51.210Z,989.71
2023-01-19T08:21:51.211Z,989.77
2023-01-19T08:22:51.189Z,989.76
2023-01-19T08:23:51.170Z,989.76
2023-01-19T08:24:51.166Z,989.77
2023-01-19T08:25:51.149Z,989.75
2023-01-19T08:26:51.142Z,989.77
2023-01-19T08:27:51.136Z,989.84
2023-01-19T08:28:51.156Z,989.81
2023-01-19T08:29:51.106Z,989.84
2023-01-19T08:30:51.100Z,989.86
2023-01-19T08:31:51.088Z,989.8
2023-01-19T08:32:51.081Z,989.84
2023-01-19T08:33:51.073Z,989.88
2023-01-19T08:34:51.063Z,989.84
2023-01-19T08:35:51.058Z,989.88
2023-01-19T08:36:51.042Z,989.89
2023-01-19T08:37:51.027Z,989.97
2023-01-19T08:38:51.016Z,989.94
2023-01-19T08:39:51.013Z,989.93
2023-01-19T08:40:50.996Z,989.9
2023-01-19T08:41:50.988Z,989.99
2023-01-19T08:42:50.991Z,989.92
2023-01-19T08:43:50.964Z,989.95
2023-01-19T08:44:50.956Z,989.98
2023-01-19T08:45:50.936Z,990.05
2023-01-19T08:46:50.937Z,990.03
2023-01-19T08:47:50.919Z,990.04
2023-01-19T08:48:50.915Z,990.04
2023-01-19T08:49:50.898Z,990.06
2023-01-19T08:50:50.888Z,990.08
2023-01-19T08:51:50.876Z,990.05
2023-01-19T08:52:50.901Z,990.08
2023-01-19T08:53:50.853Z,990.06
2023-01-19T08:54:50.844Z,990.11
2023-01-19T08:55:50.832Z,990.08
2023-01-19T08:56:50.823Z,990.13
2023-01-19T08:57:50.814Z,990.13
2023-01-19T08:58:50.865Z,990.12
2023-01-19T08:59:50.794Z,990.13
2023-01-19T09:00:50.795Z,990.11
2023-01-19T09:01:50.784Z,990.17
2023-01-19T09:02:50.762Z,990.15
2023-01-19T09:03:50.746Z,990.12
2023-01-19T09:04:50.739Z,990.18
2023-01-19T09:05:50.730Z,990.14
2023-01-19T09:06:50.716Z,990.18
2023-01-19T09:07:50.710Z,990.25
2023-01-19T09:08:50.973Z,990.16
2023-01-19T09:09:50.687Z,990.25
2023-01-19T09:10:50.679Z,990.21
2023-01-19T09:11:50.665Z,990.23
2023-01-19T09:12:50.664Z,990.15
2023-01-19T09:13:50.647Z,990.2
2023-01-19T09:14:50.699Z,990.24
2023-01-19T09:15:50.630Z,990.28
2023-01-19T09:16:50.610Z,990.26
2023-01-19T09:17:50.610Z,990.27
2023-01-19T09:18:50.590Z,990.28
2023-01-19T09:19:50.583Z,990.31
2023-01-19T09:20:50.571Z,990.31
2023-01-19T09:21:50.580Z,990.37
2023-01-19T09:22:50.554Z,990.4
2023-01-19T09:23:50.542Z,990.43
2023-01-19T09:24:50.530Z,990.37
2023-01-19T09:25:50.525Z,990.48
2023-01-19T09:26:50.515Z,990.45
2023-01-19T09:27:50.522Z,990.44
2023-01-19T09:28:50.489Z,990.46
2023-01-19T09:29:50.549Z,990.48
2023-01-19T09:30:50.466Z,990.52
2023-01-19T09:31:50.460Z,990.57
2023-01-19T09:32:50.446Z,990.58
2023-01-19T09:33:50.436Z,990.55
2023-01-19T09:34:50.431Z,990.56
2023-01-19T09:35:50.419Z,990.56
2023-01-19T09:36:50.509Z,990.56
2023-01-19T09:37:50.398Z,990.62
2023-01-19T09:38:50.385Z,990.62
2023-01-19T09:39:50.376Z,990.64
2023-01-19T09:40:50.364Z,990.65
2023-01-19T09:41:50.374Z,990.66
2023-01-19T09:42:50.344Z,990.66
2023-01-19T09:43:50.339Z,990.61
2023-01-19T09:44:50.332Z,990.61
2023-01-19T09:45:50.317Z,990.64
2023-01-19T09:46:50.301Z,990.65
2023-01-19T09:47:50.303Z,990.55
2023-01-19T09:48:50.290Z,990.65
2023-01-19T09:49:50.282Z,990.61
2023-01-19T09:50:50.261Z,990.62
2023-01-19T09:51:50.249Z,990.67
2023-01-19T09:52:50.260Z,990.65
2023-01-19T09:53:50.228Z,990.73
2023-01-19T09:54:50.222Z,990.78
2023-01-19T09:55:50.209Z,990.78
2023-01-19T09:56:50.217Z,990.75
2023-01-19T09:57:50.190Z,990.78
2023-01-19T09:58:50.178Z,990.74
2023-01-19T09:59:50.167Z,990.79
2023-01-19T10:00:50.160Z,990.79
2023-01-19T10:01:50.154Z,990.86
2023-01-19T10:02:50.140Z,990.84
2023-01-19T10:03:50.139Z,990.8
2023-01-19T10:04:50.123Z,990.85
2023-01-19T10:05:50.110Z,990.85
2023-01-19T10:06:50.118Z,990.9
2023-01-19T10:07:50.087Z,990.84
2023-01-19T10:08:50.081Z,990.84
2023-01-19T10:09:50.089Z,990.86
2023-01-19T10:10:50.074Z,990.9
2023-01-19T10:11:50.058Z,990.92
2023-01-19T10:12:50.040Z,990.92
2023-01-19T10:13:50.026Z,990.92
2023-01-19T10:14:50.012Z,990.92
2023-01-19T10:15:50.003Z,990.89
2023-01-19T10:16:49.988Z,990.92
2023-01-19T10:17:49.994Z,990.98
2023-01-19T10:18:49.967Z,991.04
2023-01-19T10:19:49.982Z,990.99
2023-01-19T10:20:49.945Z,990.97
2023-01-19T10:21:49.940Z,990.97
2023-01-19T10:22:49.927Z,990.98
2023-01-19T10:23:49.926Z,990.99
2023-01-19T10:24:49.903Z,991.03
2023-01-19T10:25:49.895Z,991.04
2023-01-19T10:26:49.882Z,991.06
2023-01-19T10:27:49.888Z,991.01
2023-01-19T10:28:49.866Z,991.02
2023-01-19T10:29:50.411Z,991.02
2023-01-19T10:30:49.845Z,991.03
2023-01-19T10:31:49.833Z,991.07
2023-01-19T10:32:49.827Z,991.03
2023-01-19T10:33:49.816Z,991
2023-01-19T10:34:49.801Z,991.02
2023-01-19T10:35:49.810Z,991.05
2023-01-19T10:36:49.780Z,991.08
2023-01-19T10:37:49.765Z,991.01
2023-01-19T10:38:49.757Z,991.06
2023-01-19T10:39:49.758Z,991.06
2023-01-19T10:40:49.738Z,991.03
2023-01-19T10:41:55.794Z,991.06
2023-01-19T10:42:50.723Z,991.05
2023-01-19T10:43:49.711Z,991.1
2023-01-19T10:44:49.694Z,991.05
2023-01-19T10:45:49.712Z,991.07
2023-01-19T10:46:49.676Z,991.08
2023-01-19T10:47:49.668Z,991.11
2023-01-19T10:48:49.652Z,991.14
2023-01-19T10:49:49.680Z,991.2
2023-01-19T10:50:49.630Z,991.17
2023-01-19T10:51:49.628Z,991.16
2023-01-19T10:52:49.607Z,991.2
2023-01-19T10:53:49.608Z,991.23
2023-01-19T10:54:49.652Z,991.24
2023-01-19T10:55:49.584Z,991.18
2023-01-19T10:56:49.577Z,991.25
2023-01-19T10:57:49.572Z,991.3
2023-01-19T10:58:49.546Z,991.24
2023-01-19T10:59:49.537Z,991.33
2023-01-19T11:00:49.533Z,991.32
2023-01-19T11:22:08.918Z,991.47
2023-01-19T11:23:08.789Z,991.48
2023-01-19T11:24:08.754Z,991.5
2023-01-19T11:25:08.714Z,991.5
2023-01-19T11:26:08.761Z,991.47
2023-01-19T11:27:08.713Z,991.48
2023-01-19T11:28:08.752Z,991.49
2023-01-19T11:29:08.670Z,991.54
2023-01-19T11:30:08.675Z,991.53
2023-01-19T11:31:08.656Z,991.52
2023-01-19T11:32:08.652Z,991.52
2023-01-19T11:33:08.794Z,991.58
2023-01-19T11:34:08.685Z,991.54
2023-01-19T11:35:08.673Z,991.53
2023-01-19T11:36:08.629Z,991.56
2023-01-19T11:37:08.580Z,991.53
2023-01-19T11:38:08.573Z,991.53
2023-01-19T11:39:08.570Z,991.5
2023-01-19T11:40:08.555Z,991.49
2023-01-19T11:41:08.592Z,991.52
2023-01-19T11:42:08.527Z,991.55
2023-01-19T11:43:08.519Z,991.47
2023-01-19T11:44:08.506Z,991.49
2023-01-19T11:45:08.521Z,991.55
2023-01-19T11:46:08.503Z,991.46
2023-01-19T11:47:08.479Z,991.51
2023-01-19T11:48:08.554Z,991.49
2023-01-19T11:49:08.480Z,991.51
2023-01-19T11:50:08.445Z,991.47
2023-01-19T11:51:08.439Z,991.59
2023-01-19T11:52:08.445Z,991.52
2023-01-19T11:53:08.409Z,991.53
2023-01-19T11:54:08.403Z,991.54
2023-01-19T11:55:08.393Z,991.57
2023-01-19T11:56:08.382Z,991.55
2023-01-19T11:57:08.378Z,991.53
2023-01-19T11:58:08.359Z,991.56
2023-01-19T11:59:08.366Z,991.62
2023-01-19T12:00:08.335Z,991.66
2023-01-19T12:01:08.330Z,991.6
2023-01-19T12:02:08.323Z,991.66
2023-01-19T12:03:08.306Z,991.63
2023-01-19T12:04:08.295Z,991.67
2023-01-19T12:05:08.300Z,991.7
2023-01-19T12:06:08.285Z,991.72
2023-01-19T12:07:08.267Z,991.76
2023-01-19T12:08:08.267Z,991.79
2023-01-19T12:09:08.254Z,991.81
2023-01-19T12:10:08.282Z,991.75
2023-01-19T12:11:08.223Z,991.8
2023-01-19T12:12:08.230Z,991.76
2023-01-19T12:13:08.201Z,991.74
2023-01-19T12:14:08.191Z,991.72
2023-01-19T12:15:08.182Z,991.7
2023-01-19T12:16:08.172Z,991.74
2023-01-19T12:17:08.167Z,991.76
2023-01-19T12:18:08.168Z,991.77
2023-01-19T12:19:08.140Z,991.75
2023-01-19T12:20:08.133Z,991.78
2023-01-19T12:21:08.119Z,991.76
2023-01-19T12:22:08.106Z,991.78
2023-01-19T12:23:08.102Z,991.82
2023-01-19T12:24:08.104Z,991.74
2023-01-19T12:25:08.076Z,991.77
2023-01-19T12:26:08.070Z,991.76
2023-01-19T12:27:08.059Z,991.9
2023-01-19T12:28:08.046Z,991.87
2023-01-19T12:29:08.038Z,991.89
2023-01-19T12:30:08.042Z,991.88
2023-01-19T12:31:08.033Z,991.97
2023-01-19T12:32:08.005Z,991.83
2023-01-19T12:33:07.998Z,991.88
2023-01-19T12:34:08.023Z,991.92
2023-01-19T12:35:07.973Z,991.94
2023-01-19T12:36:07.979Z,991.92
2023-01-19T12:37:07.961Z,991.89
2023-01-19T12:38:07.959Z,991.92
2023-01-19T12:39:07.937Z,991.93
2023-01-19T12:40:07.924Z,991.97
2023-01-19T12:41:07.912Z,991.96
2023-01-19T12:42:07.918Z,991.97
2023-01-19T12:43:07.896Z,992
2023-01-19T12:44:08.114Z,992.01
2023-01-19T12:45:07.882Z,991.92
2023-01-19T12:46:07.868Z,991.98
2023-01-19T12:47:07.847Z,991.97
2023-01-19T12:48:08.796Z,992.03
2023-01-19T12:49:07.832Z,992
2023-01-19T12:50:07.823Z,992.03
2023-01-19T12:51:07.829Z,992.1
2023-01-19T12:52:07.794Z,992.07